Cote D IVoirian Star — A8SL4 — position and weather

sailwx.info

Track history (hours):
 
Tides and Currents Weather Stations Pressure Air Temp Water Temp Dewpoint Dewpoint Depression Visibility Wind Speed Wind Dir Waves Ship Positions

Cote D IVoirian Star

Last reported at 2017-Oct-18 05:23 UTC. Time now 2017-Oct-22 12:20 UTC.
Position N 04°40' W 002°16'.

Length 185 m; draft 8 m.

Type: Cargo ship. MMSI: 636014241.

Date/timePositionNaut miles runAvg speedWind from/ knotsBaromVisibWave heightAir tempDewpointWater temp
2017-Oct-18 05:23N 04°40' W 002°16'616.5
2017-Oct-18 05:00N 04°40' W 002°10'816.6
2017-Oct-18 04:30N 04°39' W 002°02'816.8
2017-Oct-18 04:00N 04°40' W 001°53'816.7
2017-Oct-18 03:30N 04°40' W 001°45'816.5
2017-Oct-18 03:00N 04°40' W 001°37'815.8
2017-Oct-18 02:29N 04°45' W 001°31'816.1
2017-Oct-18 01:59N 04°49' W 001°23'816.2
2017-Oct-18 01:29N 04°51' W 001°15'4615.6
2017-Oct-17 22:30N 05°10' W 000°33'815.2
2017-Oct-17 22:00N 05°14' W 000°26'815.5
2017-Oct-17 21:30N 05°17' W 000°19'815.5
2017-Oct-17 21:00N 05°21' W 000°12'815.8
2017-Oct-17 20:30N 05°24' W 000°05'815.3
2017-Oct-17 20:00N 05°29' E 000°01'714.9
2017-Oct-17 19:30N 05°36' E 000°04'4 7.7
2017-Oct-17 19:01N 05°38' E 000°01'0 0.1
2017-Oct-17 18:28N 05°38' E 000°01'0 0.0
2017-Oct-17 17:58N 05°38' E 000°01'0 0.0
2017-Oct-17 17:28N 05°38' E 000°01'0 0.0
2017-Oct-17 16:58N 05°38' E 000°01'0 0.0
2017-Oct-17 16:28N 05°38' E 000°01'0 0.0
2017-Oct-17 15:58N 05°38' E 000°01'0 0.0
2017-Oct-17 15:28N 05°38' E 000°01'0 0.0
2017-Oct-17 14:58N 05°38' E 000°01'0 0.0
2017-Oct-17 14:28N 05°38' E 000°01'0 0.0
2017-Oct-17 13:58N 05°38' E 000°01'0 0.0
2017-Oct-17 13:28N 05°38' E 000°01'0 0.0
2017-Oct-17 12:58N 05°38' E 000°01'0 0.0
2017-Oct-17 12:28N 05°38' E 000°01'0 0.0
2017-Oct-17 11:58N 05°38' E 000°01'0 0.0
2017-Oct-17 11:28N 05°38' E 000°01'0 0.0
2017-Oct-17 10:58N 05°38' E 000°01'0 0.0
2017-Oct-17 10:28N 05°38' E 000°01'0 0.0
2017-Oct-17 09:58N 05°38' E 000°01'0 0.0
2017-Oct-17 09:28N 05°38' E 000°01'0 0.0
2017-Oct-17 08:58N 05°38' E 000°01'0 0.0
2017-Oct-17 08:28N 05°38' E 000°01'0 0.0
2017-Oct-17 07:58N 05°38' E 000°01'0 0.0
2017-Oct-17 07:28N 05°38' E 000°01'0 0.0
2017-Oct-17 06:59N 05°38' E 000°01'1 2.7
2017-Oct-17 06:30N 05°38' E 000°02'2 3.6
2017-Oct-17 06:00N 05°37' E 000°03'2 3.9
2017-Oct-17 05:30N 05°35' E 000°04'5 9.4
2017-Oct-17 05:00N 05°31' E 000°07'713.1
2017-Oct-17 04:30N 05°27' E 000°12'816.6
2017-Oct-17 04:00N 05°22' E 000°19'816.7
2017-Oct-17 03:30N 05°17' E 000°25'  
2017-Oct-11 19:10N 04°24' W 001°48'719.1
2017-Oct-11 18:48N 04°26' W 001°54'619.3
2017-Oct-11 18:30N 04°28' W 001°60'1019.4
2017-Oct-11 18:00N 04°31' W 002°09'1019.5
2017-Oct-11 17:30N 04°34' W 002°18'1019.3
2017-Oct-11 17:00N 04°38' W 002°27'  
Track history (hours):
 
Tides and Currents Weather Stations Pressure Air Temp Water Temp Dewpoint Dewpoint Depression Visibility Wind Speed Wind Dir Waves Ship Positions

Cote D IVoirian Star

Last reported at 2017-Oct-18 05:23 UTC. Time now 2017-Oct-22 12:20 UTC.
Position N 04°40' W 002°16'.

Length 185 m; draft 8 m.

Type: Cargo ship. MMSI: 636014241.

Date/timePositionNaut miles runAvg speedWind from/ knotsBaromVisibWave heightAir tempDewpointWater temp
2017-Oct-18 05:23N 04°40' W 002°16'616.5
2017-Oct-18 05:00N 04°40' W 002°10'816.6
2017-Oct-18 04:30N 04°39' W 002°02'816.8
2017-Oct-18 04:00N 04°40' W 001°53'816.7
2017-Oct-18 03:30N 04°40' W 001°45'816.5
2017-Oct-18 03:00N 04°40' W 001°37'815.8
2017-Oct-18 02:29N 04°45' W 001°31'816.1
2017-Oct-18 01:59N 04°49' W 001°23'816.2
2017-Oct-18 01:29N 04°51' W 001°15'4615.6
2017-Oct-17 22:30N 05°10' W 000°33'815.2
2017-Oct-17 22:00N 05°14' W 000°26'815.5
2017-Oct-17 21:30N 05°17' W 000°19'815.5
2017-Oct-17 21:00N 05°21' W 000°12'815.8
2017-Oct-17 20:30N 05°24' W 000°05'815.3
2017-Oct-17 20:00N 05°29' E 000°01'714.9
2017-Oct-17 19:30N 05°36' E 000°04'4 7.7
2017-Oct-17 19:01N 05°38' E 000°01'0 0.1
2017-Oct-17 18:28N 05°38' E 000°01'0 0.0
2017-Oct-17 17:58N 05°38' E 000°01'0 0.0
2017-Oct-17 17:28N 05°38' E 000°01'0 0.0
2017-Oct-17 16:58N 05°38' E 000°01'0 0.0
2017-Oct-17 16:28N 05°38' E 000°01'0 0.0
2017-Oct-17 15:58N 05°38' E 000°01'0 0.0
2017-Oct-17 15:28N 05°38' E 000°01'0 0.0
2017-Oct-17 14:58N 05°38' E 000°01'0 0.0
2017-Oct-17 14:28N 05°38' E 000°01'0 0.0
2017-Oct-17 13:58N 05°38' E 000°01'0 0.0
2017-Oct-17 13:28N 05°38' E 000°01'0 0.0
2017-Oct-17 12:58N 05°38' E 000°01'0 0.0
2017-Oct-17 12:28N 05°38' E 000°01'0 0.0
2017-Oct-17 11:58N 05°38' E 000°01'0 0.0
2017-Oct-17 11:28N 05°38' E 000°01'0 0.0
2017-Oct-17 10:58N 05°38' E 000°01'0 0.0
2017-Oct-17 10:28N 05°38' E 000°01'0 0.0
2017-Oct-17 09:58N 05°38' E 000°01'0 0.0
2017-Oct-17 09:28N 05°38' E 000°01'0 0.0
2017-Oct-17 08:58N 05°38' E 000°01'0 0.0
2017-Oct-17 08:28N 05°38' E 000°01'0 0.0
2017-Oct-17 07:58N 05°38' E 000°01'0 0.0
2017-Oct-17 07:28N 05°38' E 000°01'0 0.0
2017-Oct-17 06:59N 05°38' E 000°01'1 2.7
2017-Oct-17 06:30N 05°38' E 000°02'2 3.6
2017-Oct-17 06:00N 05°37' E 000°03'2 3.9
2017-Oct-17 05:30N 05°35' E 000°04'5 9.4
2017-Oct-17 05:00N 05°31' E 000°07'713.1
2017-Oct-17 04:30N 05°27' E 000°12'816.6
2017-Oct-17 04:00N 05°22' E 000°19'816.7
2017-Oct-17 03:30N 05°17' E 000°25'  
2017-Oct-11 19:10N 04°24' W 001°48'719.1
2017-Oct-11 18:48N 04°26' W 001°54'619.3
2017-Oct-11 18:30N 04°28' W 001°60'1019.4
2017-Oct-11 18:00N 04°31' W 002°09'1019.5
2017-Oct-11 17:30N 04°34' W 002°18'1019.3
2017-Oct-11 17:00N 04°38' W 002°27'  

Dump ship's entire track history